Time;durP1;ratioP1;P1;durP2;ratioP2;P2;SDS_P1;SDS_P2;PMS_P1;PMS_P2;Temp;Humidity;BMP_temperature;BMP_pressure;BME280_temperature;BME280_humidity;BME280_pressure;Samples;Min_cycle;Max_cycle;Signal;HPM_P1;HPM_P2
2023/03/20 00:00:47;;;;;;;492.30;306.67;;;;;;;5.80;nan;98689.69;5024517;28;20387;-61
2023/03/20 00:03:13;;;;;;;491.90;306.30;;;;;;;5.85;nan;98695.63;5024684;28;20057;-61
2023/03/20 00:05:39;;;;;;;491.53;304.57;;;;;;;5.79;nan;98692.22;5028697;28;20298;-62
2023/03/20 00:08:05;;;;;;;492.87;312.60;;;;;;;5.69;nan;98681.16;5029883;28;20044;-61
2023/03/20 00:10:40;;;;;;;503.77;330.97;;;;;;;5.71;nan;98682.03;5029131;28;20739;-62
2023/03/20 00:13:06;;;;;;;;;;;;;;;5.82;nan;98702.38;5029691;28;20033;-62
2023/03/20 00:15:36;;;;;;;499.27;321.00;;;;;;;5.90;nan;98699.03;5027804;28;20002;-63
2023/03/20 00:18:06;;;;;;;500.00;321.27;;;;;;;6.03;nan;98682.06;5029767;28;20675;-64
2023/03/20 00:20:32;;;;;;;501.53;327.73;;;;;;;6.09;nan;98689.72;5027341;28;20296;-64
2023/03/20 00:22:58;;;;;;;499.93;329.60;;;;;;;6.06;nan;98686.31;5028474;28;20355;-61
2023/03/20 00:25:25;;;;;;;494.57;316.50;;;;;;;6.03;nan;98669.34;5028064;28;20083;-60
2023/03/20 00:27:51;;;;;;;495.93;314.17;;;;;;;6.12;nan;98679.53;5033008;28;20523;-60
2023/03/20 00:30:23;;;;;;;500.80;326.80;;;;;;;6.21;nan;98694.78;5028291;28;20722;-61
2023/03/20 00:32:52;;;;;;;500.03;336.97;;;;;;;6.12;nan;98676.13;5028256;28;20662;-63
2023/03/20 00:35:27;;;;;;;498.57;348.50;;;;;;;6.16;nan;98686.31;5027543;28;20331;-61
2023/03/20 00:37:54;;;;;;;497.00;333.40;;;;;;;6.08;nan;98677.81;5030783;28;20314;-62
2023/03/20 00:40:21;;;;;;;493.17;326.70;;;;;;;6.12;nan;98687.16;5028570;28;20306;-62
2023/03/20 00:42:52;;;;;;;493.10;316.07;;;;;;;6.08;nan;98692.25;5028384;28;20280;-62
2023/03/20 00:45:20;;;;;;;491.47;319.83;;;;;;;5.95;nan;98665.94;5029441;28;20287;-61
2023/03/20 00:47:50;;;;;;;488.90;312.43;;;;;;;5.99;nan;98682.91;5044244;28;20288;-61
2023/03/20 00:50:25;;;;;;;496.73;313.33;;;;;;;6.01;nan;98682.94;5028668;28;20303;-62
2023/03/20 00:52:52;;;;;;;490.57;312.47;;;;;;;5.98;nan;98682.06;5028679;28;20607;-61
2023/03/20 00:55:20;;;;;;;489.67;307.63;;;;;;;6.03;nan;98678.66;5028521;28;20300;-63
2023/03/20 00:58:01;;;;;;;488.63;312.63;;;;;;;6.04;nan;98676.13;5033829;28;20366;-61
2023/03/20 01:00:38;;;;;;;487.90;311.60;;;;;;;6.03;nan;98669.34;5028120;28;20673;-62
2023/03/20 01:03:14;;;;;;;488.40;308.20;;;;;;;5.91;nan;98665.09;5029208;28;20299;-62
2023/03/20 01:05:40;;;;;;;;;;;;;;;5.93;nan;98673.59;5029174;28;21191;-60
2023/03/20 01:08:33;;;;;;;483.40;303.63;;;;;;;5.88;nan;98685.47;5029313;28;19921;-61
2023/03/20 01:10:58;;;;;;;485.93;306.70;;;;;;;5.84;nan;98680.34;5026496;28;20312;-62
2023/03/20 01:13:32;;;;;;;486.40;309.53;;;;;;;5.83;nan;98686.28;5036077;28;20972;-62
2023/03/20 01:15:58;;;;;;;496.00;329.57;;;;;;;5.83;nan;98681.19;5028750;28;20045;-61
2023/03/20 01:18:25;;;;;;;498.37;324.67;;;;;;;5.82;nan;98679.47;5043761;28;20616;-62
2023/03/20 01:20:52;;;;;;;499.40;328.70;;;;;;;5.75;nan;98665.06;5028402;28;20056;-62
2023/03/20 01:23:21;;;;;;;497.67;326.23;;;;;;;5.77;nan;98671.84;5028711;28;20435;-62
2023/03/20 01:25:48;;;;;;;498.43;340.83;;;;;;;5.82;nan;98679.47;5026881;28;20362;-63
2023/03/20 01:28:19;;;;;;;495.90;333.97;;;;;;;5.80;nan;98669.31;5027923;28;20830;-61
2023/03/20 01:30:47;;;;;;;490.87;322.40;;;;;;;5.80;nan;98671.03;5035473;28;20327;-61
2023/03/20 01:33:19;;;;;;;492.37;333.20;;;;;;;5.70;nan;98670.16;5035618;28;20310;-62
2023/03/20 01:35:49;;;;;;;492.48;321.52;;;;;;;5.75;nan;98682.88;5024607;28;20336;-64
2023/03/20 01:38:24;;;;;;;499.37;343.30;;;;;;;5.66;nan;98670.16;5029306;28;20595;-61
2023/03/20 01:41:15;;;;;;;499.97;352.57;;;;;;;5.73;nan;98690.50;5026922;28;20338;-60
2023/03/20 01:43:43;;;;;;;490.87;315.07;;;;;;;5.66;nan;98687.94;5031860;28;20276;-61
2023/03/20 01:46:10;;;;;;;493.10;318.90;;;;;;;5.67;nan;98692.19;5040995;28;20279;-62
2023/03/20 01:48:48;;;;;;;483.50;308.10;;;;;;;5.68;nan;98691.34;5038664;28;20287;-62
2023/03/20 01:51:31;;;;;;;482.20;302.97;;;;;;;5.73;nan;98689.69;5037222;28;20528;-61
2023/03/20 01:54:07;;;;;;;484.23;299.17;;;;;;;5.77;nan;98686.28;5032962;28;20373;-63
2023/03/20 01:56:40;;;;;;;488.53;322.53;;;;;;;5.77;nan;98686.28;5032840;28;20719;-62
2023/03/20 01:59:17;;;;;;;488.00;311.43;;;;;;;5.73;nan;98674.41;5031827;28;20304;-63
2023/03/20 02:01:43;;;;;;;492.47;324.73;;;;;;;5.78;nan;98687.97;5038931;28;20312;-62
2023/03/20 02:04:11;;;;;;;487.43;318.70;;;;;;;5.82;nan;98689.66;5032945;28;20294;-62
2023/03/20 02:06:51;;;;;;;489.10;309.87;;;;;;;5.76;nan;98674.41;5029663;28;20295;-62
2023/03/20 02:09:27;;;;;;;482.90;299.77;;;;;;;5.89;nan;98697.34;5031528;28;20279;-62
2023/03/20 02:11:54;;;;;;;485.27;307.20;;;;;;;5.89;nan;98699.91;5037010;28;20298;-61
2023/03/20 02:14:21;;;;;;;476.55;314.42;;;;;;;5.84;nan;98698.16;5028823;28;20412;-63
2023/03/20 02:16:53;;;;;;;468.35;277.55;;;;;;;5.75;nan;98687.97;5028706;28;20045;-62
2023/03/20 02:19:50;;;;;;;;;;;;;;;5.65;nan;98691.34;5034100;28;20191;-63
2023/03/20 02:22:37;;;;;;;472.23;274.07;;;;;;;5.62;nan;98693.88;5028556;28;19969;-62
2023/03/20 02:25:35;;;;;;;478.63;282.17;;;;;;;5.57;nan;98701.50;5032944;28;20288;-63
2023/03/20 02:28:44;;;;;;;472.07;281.97;;;;;;;5.50;nan;98689.63;5029610;28;20275;-62
2023/03/20 02:31:35;;;;;;;475.70;272.70;;;;;;;5.45;nan;98704.88;5037908;28;20342;-62
2023/03/20 02:34:18;;;;;;;475.30;275.83;;;;;;;5.35;nan;98699.75;5040592;28;20286;-62
2023/03/20 02:37:18;;;;;;;476.57;282.43;;;;;;;5.30;nan;98701.44;5032459;28;20291;-62
2023/03/20 02:39:54;;;;;;;477.93;283.53;;;;;;;5.17;nan;98695.47;5038854;28;20291;-62
2023/03/20 02:42:37;;;;;;;478.67;283.73;;;;;;;5.02;nan;98681.00;5030713;28;20326;-64
2023/03/20 02:45:32;;;;;;;474.10;278.57;;;;;;;5.02;nan;98703.03;5045984;28;20299;-62
2023/03/20 02:48:38;;;;;;;342.50;206.52;;;;;;;5.06;nan;98700.50;5029077;28;20296;-64
2023/03/20 02:51:35;;;;;;;356.48;234.70;;;;;;;4.99;nan;98705.56;5044873;28;20049;-62
2023/03/20 02:54:18;;;;;;;464.23;233.85;;;;;;;4.86;nan;98691.97;5028473;28;20099;-63
2023/03/20 02:56:50;;;;;;;339.75;182.38;;;;;;;4.88;nan;98702.97;5029275;28;20102;-62
2023/03/20 02:59:42;;;;;;;456.58;237.18;;;;;;;4.93;nan;98708.06;5030668;28;20053;-62
2023/03/20 03:02:15;;;;;;;452.95;231.95;;;;;;;4.86;nan;98709.75;5032926;28;20173;-62
2023/03/20 03:04:51;;;;;;;331.90;171.37;;;;;;;4.79;nan;98702.09;5032448;28;20043;-62
2023/03/20 03:07:22;;;;;;;459.25;244.10;;;;;;;4.80;nan;98709.69;5037797;28;20306;-62
2023/03/20 03:09:52;;;;;;;333.50;177.47;;;;;;;4.66;nan;98703.72;5038085;28;20049;-62
2023/03/20 03:12:30;;;;;;;339.83;184.57;;;;;;;4.58;nan;98708.72;5031234;28;20303;-61
2023/03/20 03:15:06;;;;;;;341.55;189.90;;;;;;;4.64;nan;98720.63;5026042;28;20288;-62
2023/03/20 03:17:35;;;;;;;337.65;180.50;;;;;;;4.53;nan;98707.88;5034794;28;20048;-62
2023/03/20 03:20:13;;;;;;;336.40;175.57;;;;;;;4.55;nan;98723.94;5028307;28;20033;-61
2023/03/20 03:22:39;;;;;;;452.23;225.50;;;;;;;4.52;nan;98720.53;5037233;28;20041;-61
2023/03/20 03:25:05;;;;;;;329.80;164.17;;;;;;;4.33;nan;98689.09;5033087;28;20136;-62
2023/03/20 03:27:39;;;;;;;451.70;224.20;;;;;;;4.30;nan;98690.78;5015485;28;20048;-61
2023/03/20 03:30:14;;;;;;;330.85;168.75;;;;;;;4.31;nan;98713.63;5036150;28;20055;-61
2023/03/20 03:33:06;;;;;;;318.55;158.95;;;;;;;4.27;nan;98711.91;5030206;28;20044;-61
2023/03/20 03:35:31;;;;;;;453.38;230.18;;;;;;;4.39;nan;98712.00;5029128;28;20110;-61
2023/03/20 03:38:02;;;;;;;461.47;244.10;;;;;;;4.38;nan;98705.22;5031615;28;20481;-61
2023/03/20 03:40:50;;;;;;;454.08;224.38;;;;;;;4.37;nan;98693.34;5043697;28;20091;-61
2023/03/20 03:43:23;;;;;;;455.17;226.93;;;;;;;4.43;nan;98710.31;5037189;28;20141;-62
2023/03/20 03:45:54;;;;;;;458.40;222.77;;;;;;;4.44;nan;98715.44;5029183;28;20299;-62
2023/03/20 03:48:26;;;;;;;453.48;222.35;;;;;;;4.35;nan;98692.53;5025970;28;20743;-62
2023/03/20 03:51:07;;;;;;;451.95;215.77;;;;;;;4.21;nan;98672.94;5027107;28;20076;-61
2023/03/20 03:53:42;;;;;;;455.15;211.05;;;;;;;4.37;nan;98708.59;5019741;28;20826;-60
2023/03/20 03:56:12;;;;;;;455.67;213.80;;;;;;;4.27;nan;98708.53;5034704;28;20500;-61
2023/03/20 03:58:45;;;;;;;450.25;209.57;;;;;;;4.18;nan;98708.47;5028408;28;20303;-61
2023/03/20 04:01:14;;;;;;;462.23;223.63;;;;;;;4.12;nan;98714.31;5043416;28;20599;-62
2023/03/20 04:03:53;;;;;;;458.33;214.40;;;;;;;3.98;nan;98693.09;5030234;28;20836;-60
2023/03/20 04:06:19;;;;;;;458.37;222.03;;;;;;;4.17;nan;98717.75;5041952;28;20353;-62
2023/03/20 04:08:45;;;;;;;459.50;222.93;;;;;;;4.09;nan;98716.84;5033941;28;20383;-61
2023/03/20 04:11:17;;;;;;;460.00;218.30;;;;;;;3.95;nan;98709.13;5043590;28;20306;-61
2023/03/20 04:13:46;;;;;;;457.83;218.33;;;;;;;3.95;nan;98709.13;5028850;28;20091;-61
2023/03/20 04:16:14;;;;;;;460.90;226.13;;;;;;;3.93;nan;98715.88;5029056;28;20292;-61
2023/03/20 04:18:42;;;;;;;458.40;224.20;;;;;;;3.88;nan;98717.53;5027003;28;20307;-61
2023/03/20 04:21:12;;;;;;;458.97;220.17;;;;;;;3.86;nan;98685.38;5036058;28;20306;-63
2023/03/20 04:23:38;;;;;;;464.33;225.93;;;;;;;4.03;nan;98714.28;5027947;28;20303;-62
2023/03/20 04:26:05;;;;;;;458.23;212.67;;;;;;;3.90;nan;98695.56;5030220;28;20734;-61
2023/03/20 04:28:33;;;;;;;458.80;217.80;;;;;;;3.96;nan;98710.81;5014411;28;20449;-62
2023/03/20 04:31:18;;;;;;;348.98;171.77;;;;;;;3.88;nan;98698.91;5032497;28;20813;-62
2023/03/20 04:33:56;;;;;;;463.43;229.37;;;;;;;4.10;nan;98713.47;5028494;28;20041;-62
2023/03/20 04:36:54;;;;;;;463.07;225.47;;;;;;;4.14;nan;98705.06;5026188;28;20402;-60
2023/03/20 04:39:24;;;;;;;460.70;219.23;;;;;;;4.14;nan;98718.59;5032302;28;20303;-61
2023/03/20 04:41:50;;;;;;;459.63;218.60;;;;;;;4.22;nan;98723.72;5028707;28;20890;-61
2023/03/20 04:44:16;;;;;;;461.40;219.90;;;;;;;4.20;nan;98727.09;5034555;28;20057;-61
2023/03/20 04:46:44;;;;;;;462.93;215.40;;;;;;;4.16;nan;98732.97;5029413;28;20296;-62
2023/03/20 04:49:14;;;;;;;462.47;218.47;;;;;;;4.01;nan;98721.88;5026584;28;20742;-62
2023/03/20 04:51:40;;;;;;;456.10;214.93;;;;;;;4.01;nan;98724.41;5017203;28;20298;-62
2023/03/20 04:54:06;;;;;;;458.27;218.13;;;;;;;3.98;nan;98742.13;5036999;28;20896;-61
2023/03/20 04:56:32;;;;;;;462.73;222.23;;;;;;;3.82;nan;98721.69;5027611;28;20044;-61
2023/03/20 04:59:14;;;;;;;457.67;220.63;;;;;;;3.80;nan;98749.56;5013025;28;20592;-62
2023/03/20 05:01:40;;;;;;;460.30;217.17;;;;;;;3.76;nan;98749.53;5026331;28;20315;-61
2023/03/20 05:04:06;;;;;;;460.50;214.10;;;;;;;3.73;nan;98749.50;5027250;28;20470;-61
2023/03/20 05:06:32;;;;;;;457.33;216.83;;;;;;;3.72;nan;98755.41;5031235;28;20300;-62
2023/03/20 05:08:59;;;;;;;454.73;208.40;;;;;;;3.80;nan;98754.63;5034649;28;20294;-61
2023/03/20 05:11:27;;;;;;;456.17;210.23;;;;;;;3.75;nan;98750.34;5029206;28;20308;-60
2023/03/20 05:14:33;;;;;;;457.48;210.20;;;;;;;3.71;nan;98758.75;4985552;28;20309;-61
2023/03/20 05:17:24;;;;;;;456.97;206.23;;;;;;;3.74;nan;98772.31;4985420;28;20502;-63
2023/03/20 05:20:16;;;;;;;457.03;210.40;;;;;;;3.64;nan;98746.03;4979808;28;20301;-61
2023/03/20 05:23:02;;;;;;;456.87;211.13;;;;;;;3.79;nan;98773.22;4968786;28;20332;-62
2023/03/20 05:25:49;;;;;;;454.70;207.70;;;;;;;3.88;nan;98764.84;4988061;28;20352;-60
2023/03/20 05:28:33;;;;;;;456.87;212.67;;;;;;;3.98;nan;98776.78;4987661;28;20311;-63
2023/03/20 05:31:11;;;;;;;459.27;208.63;;;;;;;4.01;nan;98777.66;4972157;28;20379;-61
2023/03/20 05:33:53;;;;;;;459.43;214.73;;;;;;;4.00;nan;98782.72;4981666;28;20304;-61
2023/03/20 05:36:26;;;;;;;462.13;212.27;;;;;;;4.08;nan;98786.16;4973974;28;20292;-62
2023/03/20 05:39:15;;;;;;;456.83;214.67;;;;;;;4.16;nan;98776.94;4985202;28;20301;-63
2023/03/20 05:41:59;;;;;;;456.93;209.27;;;;;;;4.11;nan;98765.91;4987836;28;20932;-63
2023/03/20 05:44:35;;;;;;;459.20;211.00;;;;;;;4.30;nan;98788.06;4990195;28;20296;-62
2023/03/20 05:47:09;;;;;;;461.17;214.60;;;;;;;4.21;nan;98787.13;5032722;28;20759;-63
2023/03/20 05:50:02;;;;;;;454.55;214.20;;;;;;;4.24;nan;98799.84;5029889;28;20432;-61
2023/03/20 05:52:38;;;;;;;461.35;231.07;;;;;;;4.27;nan;98797.34;5033145;28;20065;-63
2023/03/20 05:55:15;;;;;;;461.25;222.10;;;;;;;4.31;nan;98804.13;5039691;28;20447;-61
2023/03/20 05:58:00;;;;;;;336.48;168.48;;;;;;;4.47;nan;98796.66;5030494;28;20102;-62
2023/03/20 06:00:48;;;;;;;455.00;218.00;;;;;;;4.59;nan;98814.53;5024587;28;20077;-64
2023/03/20 06:03:43;;;;;;;459.13;225.67;;;;;;;4.76;nan;98801.94;4990059;28;20643;-62
2023/03/20 06:06:15;;;;;;;455.90;228.97;;;;;;;4.89;nan;98800.34;4985713;28;20388;-62
2023/03/20 06:08:45;;;;;;;456.67;220.57;;;;;;;5.10;nan;98802.16;4990738;28;20372;-59
2023/03/20 06:11:11;;;;;;;457.73;233.67;;;;;;;5.22;nan;98808.13;4975617;28;20293;-60
2023/03/20 06:13:38;;;;;;;462.73;245.97;;;;;;;5.27;nan;98820.88;4993969;28;20804;-61
2023/03/20 06:16:04;;;;;;;462.40;239.97;;;;;;;5.41;nan;98807.41;4999270;28;20329;-61
2023/03/20 06:18:31;;;;;;;461.90;246.23;;;;;;;5.49;nan;98827.75;5006549;28;20300;-61
2023/03/20 06:20:57;;;;;;;464.03;249.27;;;;;;;5.62;nan;98821.03;4971907;28;20419;-61
2023/03/20 06:23:25;;;;;;;465.83;251.30;;;;;;;5.80;nan;98821.97;4978445;28;20397;-61
2023/03/20 06:25:50;;;;;;;464.00;256.63;;;;;;;5.93;nan;98822.88;4991684;28;20288;-61
2023/03/20 06:28:18;;;;;;;468.93;270.33;;;;;;;6.08;nan;98827.13;4988876;28;20256;-61
2023/03/20 06:30:44;;;;;;;468.70;270.37;;;;;;;6.28;nan;98828.84;4989955;28;20575;-61
2023/03/20 06:33:15;;;;;;;469.40;278.70;;;;;;;6.48;nan;98823.78;4984137;28;20316;-61
2023/03/20 06:35:54;;;;;;;473.05;278.73;;;;;;;6.75;nan;98833.09;4989126;28;20381;-60
2023/03/20 06:38:20;;;;;;;472.70;283.50;;;;;;;7.03;nan;98832.25;4992594;28;20050;-61
2023/03/20 06:40:46;;;;;;;470.70;275.07;;;;;;;7.29;nan;98822.00;4986444;28;20364;-60
2023/03/20 06:43:15;;;;;;;472.73;284.80;;;;;;;7.60;nan;98830.38;4989115;28;20042;-62
2023/03/20 06:45:47;;;;;;;476.13;308.87;;;;;;;7.87;nan;98825.16;4986361;28;21023;-62
2023/03/20 06:48:21;;;;;;;472.17;301.03;;;;;;;8.19;nan;98802.81;4989161;28;20289;-61
2023/03/20 06:50:48;;;;;;;475.67;315.67;;;;;;;8.66;nan;98827.19;4986236;28;20297;-61
2023/03/20 06:53:16;;;;;;;480.67;313.70;;;;;;;9.03;nan;98825.19;4986341;28;20300;-60
2023/03/20 06:55:49;;;;;;;485.00;329.00;;;;;;;9.37;nan;98830.78;4987224;28;20293;-60
2023/03/20 06:58:15;;;;;;;485.60;383.33;;;;;;;9.75;nan;98810.72;5000500;28;20842;-60
2023/03/20 07:00:42;;;;;;;476.77;357.80;;;;;;;10.09;nan;98829.03;4971642;28;20772;-61
2023/03/20 07:03:08;;;;;;;480.30;384.90;;;;;;;10.49;nan;98821.63;5024060;28;20709;-61
2023/03/20 07:05:35;;;;;;;484.40;372.77;;;;;;;10.85;nan;98812.50;5025712;28;20283;-61
2023/03/20 07:08:06;;;;;;;485.77;396.97;;;;;;;11.18;nan;98821.28;5033863;28;20283;-61
2023/03/20 07:10:33;;;;;;;490.50;419.47;;;;;;;11.41;nan;98832.81;5031810;28;20292;-60
2023/03/20 07:12:59;;;;;;;494.83;433.50;;;;;;;11.53;nan;98830.91;5033492;28;20293;-61
2023/03/20 07:15:26;;;;;;;496.37;441.57;;;;;;;11.68;nan;98820.31;5024458;28;20655;-61
2023/03/20 07:17:52;;;;;;;538.30;482.23;;;;;;;11.90;nan;98827.59;5027854;28;20327;-61
2023/03/20 07:20:19;;;;;;;553.70;497.47;;;;;;;12.03;nan;98832.47;5033476;28;20406;-60
2023/03/20 07:22:46;;;;;;;533.70;477.57;;;;;;;11.96;nan;98824.06;5027115;28;20829;-61
2023/03/20 07:25:19;;;;;;;394.00;353.88;;;;;;;12.09;nan;98835.75;5034726;28;20114;-62
2023/03/20 07:27:49;;;;;;;562.97;506.20;;;;;;;12.05;nan;98835.84;5025050;28;20045;-62
2023/03/20 07:30:17;;;;;;;560.53;503.53;;;;;;;11.88;nan;98816.47;5014615;28;20334;-61
2023/03/20 07:32:44;;;;;;;562.17;505.67;;;;;;;12.09;nan;98837.47;5034617;28;20848;-62
2023/03/20 07:35:12;;;;;;;554.97;498.67;;;;;;;12.24;nan;98845.69;5027575;28;20295;-62
2023/03/20 07:37:40;;;;;;;559.13;502.60;;;;;;;12.28;nan;98841.31;5028214;28;20299;-60
2023/03/20 07:40:07;;;;;;;585.77;528.03;;;;;;;12.32;nan;98840.38;5028624;28;20694;-61
2023/03/20 07:42:48;;;;;;;587.57;529.73;;;;;;;12.40;nan;98833.31;5034769;28;20131;-61
2023/03/20 07:45:34;;;;;;;595.77;538.00;;;;;;;12.59;nan;98839.75;5027050;28;20057;-62
2023/03/20 07:48:00;;;;;;;584.93;527.43;;;;;;;12.60;nan;98825.16;5011403;28;20052;-61
2023/03/20 07:50:26;;;;;;;580.23;523.10;;;;;;;12.81;nan;98845.22;5025297;28;20500;-62
2023/03/20 07:52:51;;;;;;;583.53;526.27;;;;;;;12.81;nan;98828.03;5025822;28;20045;-62
2023/03/20 07:55:19;;;;;;;589.73;532.57;;;;;;;12.90;nan;98832.09;5025924;28;20123;-61
2023/03/20 07:57:48;;;;;;;597.00;540.07;;;;;;;13.03;nan;98838.63;5027161;28;20300;-62
2023/03/20 08:00:15;;;;;;;599.13;541.90;;;;;;;13.32;nan;98839.66;5027825;28;20056;-62
2023/03/20 08:02:41;;;;;;;608.57;550.87;;;;;;;13.37;nan;98848.06;5029751;28;20307;-62
2023/03/20 08:05:07;;;;;;;646.93;587.97;;;;;;;13.15;nan;98827.22;5029010;28;20703;-61
2023/03/20 08:07:32;;;;;;;629.97;571.60;;;;;;;13.25;nan;98838.97;5028036;28;20194;-61
2023/03/20 08:09:58;;;;;;;625.60;567.23;;;;;;;13.15;nan;98824.66;5024954;28;20072;-62
2023/03/20 08:12:24;;;;;;;618.63;560.73;;;;;;;13.28;nan;98851.78;5025468;28;20136;-61
2023/03/20 08:14:51;;;;;;;579.00;522.40;;;;;;;13.27;nan;98850.91;5029003;28;20079;-62
2023/03/20 08:17:17;;;;;;;569.47;513.27;;;;;;;13.47;nan;98847.81;5028916;28;20373;-63
2023/03/20 08:19:42;;;;;;;546.40;491.10;;;;;;;13.41;nan;98857.44;5029002;28;20651;-63
2023/03/20 08:22:08;;;;;;;549.00;493.40;;;;;;;13.35;nan;98845.56;5029428;28;21125;-67
2023/03/20 08:24:34;;;;;;;578.73;522.57;;;;;;;13.28;nan;98850.00;5029434;28;20641;-64
2023/03/20 08:27:00;;;;;;;590.40;533.70;;;;;;;13.47;nan;98842.66;5025306;28;20094;-63
2023/03/20 08:29:26;;;;;;;589.80;532.83;;;;;;;13.60;nan;98851.75;5029521;28;20135;-62
2023/03/20 08:31:51;;;;;;;598.53;541.57;;;;;;;13.68;nan;98856.66;5026709;28;20349;-60
2023/03/20 08:34:17;;;;;;;649.07;590.63;;;;;;;13.95;nan;98840.44;5025378;28;20045;-61
2023/03/20 08:36:43;;;;;;;634.07;575.77;;;;;;;13.86;nan;98850.16;5024006;28;20099;-62
2023/03/20 08:39:09;;;;;;;625.33;567.73;;;;;;;13.91;nan;98856.03;5024281;28;20049;-62
2023/03/20 08:41:38;;;;;;;616.73;559.77;;;;;;;14.02;nan;98853.97;5027175;28;20055;-63
2023/03/20 08:44:05;;;;;;;625.80;568.20;;;;;;;13.89;nan;98845.75;5029666;28;20052;-61
2023/03/20 08:46:31;;;;;;;632.90;575.03;;;;;;;14.07;nan;98852.97;5025229;28;20083;-59
2023/03/20 08:48:57;;;;;;;647.23;588.73;;;;;;;13.94;nan;98851.63;5027338;28;20493;-62
2023/03/20 08:51:24;;;;;;;659.90;601.00;;;;;;;14.04;nan;98857.38;5025575;28;20091;-60
2023/03/20 08:53:50;;;;;;;653.37;594.97;;;;;;;14.08;nan;98852.09;5032656;28;20147;-60
2023/03/20 08:56:15;;;;;;;650.13;591.90;;;;;;;14.23;nan;98853.34;5031611;28;20049;-61
2023/03/20 08:58:41;;;;;;;663.33;604.20;;;;;;;14.02;nan;98839.34;5030791;28;20492;-62
2023/03/20 09:01:08;;;;;;;643.40;584.87;;;;;;;14.03;nan;98840.19;5029698;28;20064;-61
2023/03/20 09:03:35;;;;;;;626.00;567.83;;;;;;;14.00;nan;98851.44;5028973;28;20524;-62
2023/03/20 09:06:03;;;;;;;618.50;561.10;;;;;;;13.97;nan;98854.09;5029873;28;20063;-62
2023/03/20 09:08:30;;;;;;;624.80;567.43;;;;;;;14.22;nan;98864.53;5030687;28;20056;-62
2023/03/20 09:10:56;;;;;;;621.73;564.27;;;;;;;14.27;nan;98859.25;5031707;28;20067;-61
2023/03/20 09:13:22;;;;;;;659.70;601.30;;;;;;;14.24;nan;98859.34;5030458;28;20041;-60
2023/03/20 09:15:47;;;;;;;651.00;592.77;;;;;;;14.18;nan;98862.94;5029401;28;20045;-60
2023/03/20 09:18:14;;;;;;;659.63;601.00;;;;;;;14.42;nan;98854.53;5029622;28;20504;-59
2023/03/20 09:20:39;;;;;;;680.50;621.30;;;;;;;14.30;nan;98838.53;5029789;28;20068;-61
2023/03/20 09:23:05;;;;;;;680.80;621.77;;;;;;;14.46;nan;98844.94;5029250;28;20124;-60
2023/03/20 09:25:31;;;;;;;674.63;615.63;;;;;;;14.73;nan;98867.28;5027914;28;20041;-60
2023/03/20 09:27:57;;;;;;;683.07;624.03;;;;;;;14.59;nan;98866.91;5027076;28;20041;-60
2023/03/20 09:30:24;;;;;;;682.63;623.60;;;;;;;14.77;nan;98855.97;5027394;28;20064;-59
2023/03/20 09:32:50;;;;;;;692.97;633.87;;;;;;;14.87;nan;98846.19;5022480;28;20271;-60
2023/03/20 09:35:16;;;;;;;678.73;620.10;;;;;;;14.93;nan;98846.00;5027739;28;20190;-60
2023/03/20 09:37:42;;;;;;;693.13;634.30;;;;;;;14.83;nan;98829.13;5030659;28;20044;-59
2023/03/20 09:40:22;;;;;;;681.03;622.43;;;;;;;15.03;nan;98848.22;5029765;28;20565;-59
2023/03/20 09:43:31;;;;;;;682.83;624.33;;;;;;;15.19;nan;98838.19;5030944;28;20392;-59
2023/03/20 09:46:29;;;;;;;688.80;629.90;;;;;;;15.19;nan;98842.56;5028972;28;20052;-61
2023/03/20 09:49:25;;;;;;;708.80;649.47;;;;;;;15.64;nan;98840.97;4980894;28;20057;-60
2023/03/20 09:51:57;;;;;;;728.83;668.73;;;;;;;15.75;nan;98836.22;5030445;28;20052;-61
2023/03/20 09:54:32;;;;;;;735.10;674.93;;;;;;;15.76;nan;98829.31;5030153;28;20041;-62
2023/03/20 09:57:18;;;;;;;728.28;668.35;;;;;;;15.57;nan;98828.31;5030501;28;20411;-62
2023/03/20 09:59:44;;;;;;;741.57;681.23;;;;;;;15.97;nan;98839.72;5028994;28;20543;-62
2023/03/20 10:02:18;;;;;;;752.83;692.60;;;;;;;16.08;nan;98841.91;5026066;28;20626;-63
2023/03/20 10:04:46;;;;;;;740.87;680.83;;;;;;;15.79;nan;98821.44;5029779;28;20388;-62
2023/03/20 10:07:16;;;;;;;742.73;682.43;;;;;;;15.85;nan;98840.19;5028852;28;20040;-62
2023/03/20 10:09:44;;;;;;;740.30;680.47;;;;;;;15.90;nan;98801.22;5027051;28;20105;-62
2023/03/20 10:12:33;;;;;;;725.53;666.40;;;;;;;15.96;nan;98822.50;5029786;28;20135;-62
2023/03/20 10:15:18;;;;;;;737.27;677.73;;;;;;;16.14;nan;98823.56;5024143;28;20631;-63
2023/03/20 10:18:12;;;;;;;738.60;678.80;;;;;;;15.97;nan;98819.03;5030426;28;20145;-62
2023/03/20 10:21:12;;;;;;;749.37;689.27;;;;;;;15.81;nan;98819.66;5035405;28;20045;-62
2023/03/20 10:23:48;;;;;;;739.60;680.27;;;;;;;15.78;nan;98809.44;5031250;28;20603;-62
2023/03/20 10:26:18;;;;;;;739.47;679.87;;;;;;;15.93;nan;98817.47;5029994;28;20041;-62
2023/03/20 10:29:05;;;;;;;751.33;691.27;;;;;;;16.41;nan;98819.06;5028734;28;20048;-62
2023/03/20 10:31:36;;;;;;;754.87;695.10;;;;;;;16.42;nan;98806.06;5026870;28;20049;-62
2023/03/20 10:34:20;;;;;;;763.60;703.37;;;;;;;15.98;nan;98818.13;5030646;28;20044;-63
2023/03/20 10:37:14;;;;;;;743.47;683.85;;;;;;;16.19;nan;98808.72;5033885;28;20064;-62
2023/03/20 10:39:49;;;;;;;764.50;704.23;;;;;;;16.31;nan;98784.09;5043783;28;20572;-62
2023/03/20 10:42:29;;;;;;;756.10;695.88;;;;;;;16.25;nan;98805.06;5027287;28;20033;-62
2023/03/20 10:45:18;;;;;;;766.20;706.00;;;;;;;16.43;nan;98794.81;5027273;28;20044;-62
2023/03/20 10:47:47;;;;;;;762.60;702.47;;;;;;;16.24;nan;98795.59;5020281;28;20464;-61
2023/03/20 10:50:31;;;;;;;767.90;707.57;;;;;;;16.40;nan;98810.47;5018218;28;20591;-61
2023/03/20 10:52:59;;;;;;;801.63;739.40;;;;;;;16.00;nan;98792.19;5028215;28;20428;-61
2023/03/20 10:55:41;;;;;;;797.87;733.87;;;;;;;15.98;nan;98778.50;5024893;28;20049;-62
2023/03/20 10:58:25;;;;;;;798.50;734.33;;;;;;;16.39;nan;98785.47;5027056;28;20726;-62
2023/03/20 11:00:54;;;;;;;805.13;741.07;;;;;;;16.53;nan;98784.09;5024259;28;20660;-61
2023/03/20 11:03:26;;;;;;;837.10;771.83;;;;;;;16.35;nan;98768.41;5029846;28;20048;-62
2023/03/20 11:06:00;;;;;;;845.13;779.97;;;;;;;16.50;nan;98772.13;5029456;28;20084;-62
2023/03/20 11:08:35;;;;;;;756.27;693.20;;;;;;;16.64;nan;98781.94;5028081;28;20083;-62
2023/03/20 11:11:02;;;;;;;767.83;704.27;;;;;;;16.85;nan;98775.84;5030082;28;20051;-62
2023/03/20 11:13:28;;;;;;;742.40;679.47;;;;;;;16.91;nan;98762.66;5029653;28;20061;-62
2023/03/20 11:15:54;;;;;;;760.00;695.33;;;;;;;17.00;nan;98780.41;5025604;28;20041;-61
2023/03/20 11:18:24;;;;;;;766.97;702.57;;;;;;;17.06;nan;98780.13;5026975;28;20574;-61
2023/03/20 11:20:56;;;;;;;752.40;688.10;;;;;;;16.99;nan;98763.19;5030777;28;20041;-61
2023/03/20 11:23:32;;;;;;;772.67;708.10;;;;;;;17.06;nan;98763.78;5029750;28;20037;-62
2023/03/20 11:26:05;;;;;;;735.03;671.00;;;;;;;17.03;nan;98759.53;5035096;28;20114;-61
2023/03/20 11:28:38;;;;;;;661.90;601.40;;;;;;;16.86;nan;98777.53;5029214;28;20101;-62
2023/03/20 11:31:24;;;;;;;756.50;695.53;;;;;;;16.62;nan;98774.25;5028697;28;20041;-62
2023/03/20 11:34:05;;;;;;;743.90;683.07;;;;;;;16.52;nan;98766.88;5029538;28;20080;-61
2023/03/20 11:36:33;;;;;;;768.07;706.20;;;;;;;16.57;nan;98770.13;5030504;28;20049;-61
2023/03/20 11:39:07;;;;;;;748.30;687.30;;;;;;;16.61;nan;98761.34;5029645;28;20048;-63
2023/03/20 11:41:33;;;;;;;724.07;664.20;;;;;;;16.59;nan;98760.59;5031327;28;20181;-61
2023/03/20 11:43:59;;;;;;;746.37;685.80;;;;;;;16.39;nan;98748.41;5028970;28;20069;-62
2023/03/20 11:46:25;;;;;;;749.57;688.80;;;;;;;16.31;nan;98753.06;5024815;28;20117;-64
2023/03/20 11:49:19;;;;;;;725.40;665.33;;;;;;;16.27;nan;98747.16;5025174;28;20128;-63